createdAt,value
2023-01-11T00:00:39.263Z,-11.86
2023-01-11T00:03:07.688Z,-12.17
2023-01-11T00:05:45.838Z,-11.93
2023-01-11T00:08:13.440Z,-11.74
2023-01-11T00:10:40.858Z,-11.54
2023-01-11T00:13:08.019Z,-11.31
2023-01-11T00:15:38.316Z,-11.30
2023-01-11T00:18:05.797Z,-11.60
2023-01-11T00:20:33.159Z,-11.52
2023-01-11T00:23:00.678Z,-11.66
2023-01-11T00:25:28.129Z,-11.75
2023-01-11T00:27:55.638Z,-11.78
2023-01-11T00:30:22.789Z,-11.64
2023-01-11T00:32:49.970Z,-11.65
2023-01-11T00:35:17.609Z,-11.50
2023-01-11T00:37:44.680Z,-11.48
2023-01-11T00:40:12.328Z,-11.55
2023-01-11T00:42:58.918Z,-11.62
2023-01-11T00:45:44.485Z,-11.28
2023-01-11T00:48:11.603Z,-11.18
2023-01-11T00:50:40.752Z,-11.24
2023-01-11T00:53:09.460Z,-11.19
2023-01-11T00:55:37.484Z,-11.07
2023-01-11T00:58:04.896Z,-10.91
2023-01-11T01:00:32.107Z,-10.79
2023-01-11T01:02:59.342Z,-11.17
2023-01-11T01:05:27.517Z,-11.37
2023-01-11T01:07:54.673Z,-11.70
2023-01-11T01:10:21.937Z,-11.65
2023-01-11T01:13:07.752Z,-11.86
2023-01-11T01:15:35.099Z,-11.89
2023-01-11T01:18:02.441Z,-11.68
2023-01-11T01:20:29.643Z,-11.70
2023-01-11T01:22:56.944Z,-11.86
2023-01-11T01:25:24.342Z,-12.08
2023-01-11T01:27:51.934Z,-11.88
2023-01-11T01:30:19.154Z,-11.86
2023-01-11T01:32:46.347Z,-12.02
2023-01-11T01:35:13.440Z,-11.80
2023-01-11T01:37:40.794Z,-12.08
2023-01-11T01:40:08.663Z,-11.88
2023-01-11T01:42:35.748Z,-11.85
2023-01-11T01:45:18.825Z,-11.62
2023-01-11T01:47:51.417Z,-11.41
2023-01-11T01:50:33.588Z,-11.50
2023-01-11T01:53:07.872Z,-11.65
2023-01-11T01:55:45.513Z,-11.76
2023-01-11T01:58:16.812Z,-11.68
2023-01-11T02:00:45.626Z,-11.47
2023-01-11T02:03:18.649Z,-11.85
2023-01-11T02:05:46.458Z,-11.97
2023-01-11T02:08:32.976Z,-11.82
2023-01-11T02:11:04.241Z,-11.71
2023-01-11T02:13:46.408Z,-11.95
2023-01-11T02:16:13.788Z,-11.74
2023-01-11T02:18:42.429Z,-11.79
2023-01-11T02:21:37.813Z,-11.85
2023-01-11T02:24:33.786Z,-11.84
2023-01-11T02:27:03.926Z,-11.89
2023-01-11T02:29:42.231Z,-11.62
2023-01-11T02:32:27.819Z,-11.49
2023-01-11T02:35:21.605Z,-11.55
2023-01-11T02:37:51.894Z,-11.61
2023-01-11T02:40:35.930Z,-11.81
2023-01-11T02:43:36.042Z,-11.68
2023-01-11T02:46:57.712Z,-11.59
2023-01-11T02:49:32.177Z,-11.47
2023-01-11T02:52:32.396Z,-11.57
2023-01-11T02:55:01.298Z,-11.60
2023-01-11T02:57:33.003Z,-11.50
2023-01-11T03:00:02.582Z,-11.28
2023-01-11T03:02:32.781Z,-11.05
2023-01-11T03:05:01.374Z,-11.27
2023-01-11T03:08:15.336Z,-11.59
2023-01-11T03:11:04.690Z,-11.67
2023-01-11T03:14:02.444Z,-11.59
2023-01-11T03:16:55.086Z,-11.61
2023-01-11T03:19:39.255Z,-11.50
2023-01-11T03:22:39.672Z,-11.46
2023-01-11T03:25:32.934Z,-11.33
2023-01-11T03:28:24.139Z,-11.55
2023-01-11T03:31:01.250Z,-11.52
2023-01-11T03:34:06.397Z,-11.58
2023-01-11T03:36:40.304Z,-11.81
2023-01-11T03:39:27.301Z,-11.80
2023-01-11T03:41:58.945Z,-11.81
2023-01-11T03:44:31.801Z,-11.76
2023-01-11T03:47:07.402Z,-11.77
2023-01-11T03:49:39.286Z,-12.02
2023-01-11T03:52:12.641Z,-11.91
2023-01-11T03:54:41.353Z,-11.52
2023-01-11T03:57:23.073Z,-11.56
2023-01-11T03:59:50.885Z,-11.49
2023-01-11T04:02:25.411Z,-11.39
2023-01-11T04:04:52.872Z,-11.17
2023-01-11T04:07:20.110Z,-11.02
2023-01-11T04:09:47.333Z,-11.20
2023-01-11T04:12:14.428Z,-11.25
2023-01-11T04:14:41.743Z,-11.36
2023-01-11T04:17:09.060Z,-11.58
2023-01-11T04:19:36.222Z,-11.68
2023-01-11T04:22:03.368Z,-11.71
2023-01-11T04:24:31.071Z,-11.28
2023-01-11T04:26:58.185Z,-11.19
2023-01-11T04:29:26.059Z,-11.31
2023-01-11T04:31:53.156Z,-11.19
2023-01-11T04:34:20.283Z,-11.30
2023-01-11T04:36:48.087Z,-11.32
2023-01-11T04:39:15.162Z,-11.31
2023-01-11T04:42:00.866Z,-11.28
2023-01-11T04:44:27.918Z,-11.47
2023-01-11T04:46:55.120Z,-11.53
2023-01-11T04:49:22.246Z,-11.43
2023-01-11T04:51:49.587Z,-11.24
2023-01-11T04:54:18.036Z,-11.21
2023-01-11T04:56:45.487Z,-11.30
2023-01-11T04:59:12.731Z,-11.34
2023-01-11T05:01:44.300Z,-11.35
2023-01-11T05:04:13.387Z,-11.05
2023-01-11T05:06:40.910Z,-11.45
2023-01-11T05:09:13.631Z,-11.32
2023-01-11T05:11:43.363Z,-11.38
2023-01-11T05:14:10.946Z,-11.28
2023-01-11T05:16:40.268Z,-11.57
2023-01-11T05:19:12.552Z,-11.22
2023-01-11T05:21:42.672Z,-11.11
2023-01-11T05:24:16.486Z,-11.30
2023-01-11T05:26:46.027Z,-11.28
2023-01-11T05:29:20.823Z,-11.29
2023-01-11T05:31:48.501Z,-11.01
2023-01-11T05:34:17.408Z,-11.20
2023-01-11T05:36:45.661Z,-11.34
2023-01-11T05:39:14.134Z,-11.30
2023-01-11T05:41:41.488Z,-11.39
2023-01-11T05:44:30.913Z,-11.35
2023-01-11T05:46:58.402Z,-11.32
2023-01-11T05:49:25.801Z,-11.41
2023-01-11T05:51:52.903Z,-11.50
2023-01-11T05:54:21.025Z,-11.20
2023-01-11T05:56:48.095Z,-11.56
2023-01-11T05:59:15.410Z,-11.54
2023-01-11T06:01:42.981Z,-11.55
2023-01-11T06:04:10.076Z,-11.26
2023-01-11T06:06:37.281Z,-11.32
2023-01-11T06:09:04.667Z,-11.51
2023-01-11T06:11:31.868Z,-11.24
2023-01-11T06:13:59.023Z,-11.37
2023-01-11T06:16:26.395Z,-11.33
2023-01-11T06:18:53.890Z,-11.21
2023-01-11T06:21:22.169Z,-10.66
2023-01-11T06:23:53.492Z,-10.55
2023-01-11T06:26:22.412Z,-10.78
2023-01-11T06:28:51.121Z,-10.87
2023-01-11T06:31:18.640Z,-10.77
2023-01-11T06:33:47.153Z,-10.77
2023-01-11T06:36:15.476Z,-10.95
2023-01-11T06:38:43.813Z,-10.73
2023-01-11T06:41:12.046Z,-10.60
2023-01-11T06:43:42.068Z,-10.53
2023-01-11T06:46:19.618Z,-10.83
2023-01-11T06:48:47.746Z,-10.83
2023-01-11T06:51:16.376Z,-10.29
2023-01-11T06:53:44.668Z,-10.10
2023-01-11T06:56:17.612Z,-10.50
2023-01-11T06:58:47.068Z,-10.65
2023-01-11T07:01:16.784Z,-10.74
2023-01-11T07:03:45.528Z,-10.55
2023-01-11T07:06:13.967Z,-10.44
2023-01-11T07:08:42.637Z,-10.61
2023-01-11T07:11:09.892Z,-10.46
2023-01-11T07:13:37.060Z,-10.45
2023-01-11T07:16:04.383Z,-10.11
2023-01-11T07:18:32.249Z,-9.85
2023-01-11T07:20:59.476Z,-9.71
2023-01-11T07:23:26.578Z,-9.94
2023-01-11T07:25:55.639Z,-10.11
2023-01-11T07:28:22.848Z,-10.24
2023-01-11T07:30:58.136Z,-10.05
2023-01-11T07:33:26.517Z,-9.88
2023-01-11T07:35:54.273Z,-9.76
2023-01-11T07:38:24.975Z,-9.39
2023-01-11T07:40:56.463Z,-9.31
2023-01-11T07:43:24.187Z,-9.26
2023-01-11T07:45:56.196Z,-9.26
2023-01-11T07:48:27.081Z,-8.98
2023-01-11T07:50:54.963Z,-8.77
2023-01-11T07:53:25.678Z,-8.58
2023-01-11T07:55:55.717Z,-8.43
2023-01-11T07:58:23.794Z,-8.31
2023-01-11T08:00:50.954Z,-7.98
2023-01-11T08:03:18.346Z,-8.16
2023-01-11T08:05:50.716Z,-8.60
2023-01-11T08:08:18.053Z,-8.51
2023-01-11T08:10:45.777Z,-8.43
2023-01-11T08:13:32.741Z,-8.24
2023-01-11T08:16:00.348Z,-8.07
2023-01-11T08:18:34.480Z,-8.05
2023-01-11T08:21:02.194Z,-8.05
2023-01-11T08:23:31.642Z,-7.86
2023-01-11T08:25:59.315Z,-7.69
2023-01-11T08:28:26.899Z,-7.47
2023-01-11T08:30:54.780Z,-7.37
2023-01-11T08:33:23.299Z,-7.15
2023-01-11T08:35:51.444Z,-6.89
2023-01-11T08:38:19.166Z,-6.89
2023-01-11T08:40:46.618Z,-6.52
2023-01-11T08:43:14.024Z,-6.97
2023-01-11T08:45:41.415Z,-7.06
2023-01-11T08:48:09.163Z,-6.76
2023-01-11T08:50:36.670Z,-7.07
2023-01-11T08:53:04.072Z,-6.86
2023-01-11T08:55:31.629Z,-6.83
2023-01-11T08:57:59.026Z,-6.82
2023-01-11T09:00:26.613Z,-6.87
2023-01-11T09:02:54.453Z,-6.91
2023-01-11T09:05:22.540Z,-7.31
2023-01-11T09:07:50.180Z,-7.11
2023-01-11T09:10:17.905Z,-7.33
2023-01-11T09:12:45.531Z,-7.40
2023-01-11T09:15:13.550Z,-7.45
2023-01-11T09:17:41.226Z,-7.13
2023-01-11T09:20:10.700Z,-7.22
2023-01-11T09:22:38.429Z,-7.10
2023-01-11T09:25:06.531Z,-7.03
2023-01-11T09:27:33.975Z,-7.08
2023-01-11T09:30:02.876Z,-7.68
2023-01-11T09:32:31.140Z,-7.38
2023-01-11T09:35:00.075Z,-7.33
2023-01-11T09:37:27.863Z,-6.92
2023-01-11T09:39:58.403Z,-6.81
2023-01-11T09:42:39.881Z,-6.77
2023-01-11T09:45:14.030Z,-6.93
2023-01-11T09:48:07.183Z,-6.64
2023-01-11T09:50:42.451Z,-6.78
2023-01-11T09:53:15.788Z,-6.95
2023-01-11T09:55:47.466Z,-6.81
2023-01-11T09:58:36.957Z,-6.44
2023-01-11T10:01:30.279Z,-6.72
2023-01-11T10:04:24.358Z,-6.87
2023-01-11T10:06:52.037Z,-7.16
2023-01-11T10:18:30.651Z,-6.10
2023-01-11T10:19:25.752Z,-5.85
2023-01-11T10:21:55.583Z,-6.06
2023-01-11T10:24:34.248Z,-6.14
2023-01-11T10:27:08.786Z,-6.07
2023-01-11T10:29:58.521Z,-6.18
2023-01-11T10:32:48.286Z,-5.97
2023-01-11T10:35:57.286Z,-5.82
2023-01-11T10:38:44.328Z,-6.04
2023-01-11T10:41:33.686Z,-6.12
2023-01-11T10:44:29.104Z,-6.36
2023-01-11T10:47:00.080Z,-6.55
2023-01-11T10:49:39.855Z,-6.51
2023-01-11T10:52:35.508Z,-6.45
2023-01-11T10:55:25.149Z,-6.72
2023-01-11T10:58:16.995Z,-6.83
2023-01-11T11:01:08.831Z,-6.90
2023-01-11T11:03:45.371Z,-6.78
2023-01-11T11:06:13.189Z,-6.79
2023-01-11T11:09:21.868Z,-6.57
2023-01-11T11:12:08.484Z,-6.67
2023-01-11T11:14:41.942Z,-6.49
2023-01-11T11:17:31.863Z,-6.38
2023-01-11T11:19:59.617Z,-6.42
2023-01-11T11:22:27.363Z,-6.45
2023-01-11T11:25:04.230Z,-6.17
2023-01-11T11:27:40.880Z,-6.51
2023-01-11T11:30:12.109Z,-6.39
2023-01-11T11:32:45.391Z,-6.37
2023-01-11T11:35:34.448Z,-6.37
2023-01-11T11:38:02.653Z,-6.18
2023-01-11T11:40:38.999Z,-6.02
2023-01-11T11:43:17.175Z,-6.30
2023-01-11T11:45:52.023Z,-6.15
2023-01-11T11:48:19.628Z,-6.01
2023-01-11T11:50:48.769Z,-6.25
2023-01-11T11:53:47.521Z,-6.28
2023-01-11T11:56:23.752Z,-6.38
2023-01-11T11:58:52.412Z,-6.33
2023-01-11T12:01:36.110Z,-6.24
2023-01-11T12:04:12.028Z,-6.14
2023-01-11T12:06:41.511Z,-6.45
2023-01-11T12:09:24.302Z,-6.73
2023-01-11T12:11:51.676Z,-6.61
2023-01-11T12:14:25.673Z,-6.40
2023-01-11T12:16:53.266Z,-6.62
2023-01-11T12:19:34.012Z,-6.75
2023-01-11T12:22:16.547Z,-6.83
2023-01-11T12:24:48.958Z,-7.00
2023-01-11T12:27:34.568Z,-6.92
2023-01-11T12:30:20.239Z,-6.85
2023-01-11T12:33:19.942Z,-6.70
2023-01-11T12:36:09.463Z,-6.71
2023-01-11T12:38:55.384Z,-6.73
2023-01-11T12:41:48.596Z,-6.76
2023-01-11T12:44:34.107Z,-6.69
2023-01-11T12:47:19.651Z,-6.67
2023-01-11T12:50:25.154Z,-6.34
2023-01-11T12:53:12.991Z,-6.38
2023-01-11T12:56:19.005Z,-6.45
2023-01-11T12:58:58.813Z,-6.65
2023-01-11T13:02:04.816Z,-6.76
2023-01-11T13:04:52.441Z,-6.58
2023-01-11T13:07:46.344Z,-6.61
2023-01-11T13:10:39.394Z,-6.71
2023-01-11T13:13:24.667Z,-6.84
2023-01-11T13:16:14.769Z,-6.89
2023-01-11T13:18:50.268Z,-6.90
2023-01-11T13:21:38.097Z,-6.87
2023-01-11T13:24:17.919Z,-6.89
2023-01-11T13:26:50.457Z,-6.83
2023-01-11T13:29:29.556Z,-6.94
2023-01-11T13:31:59.783Z,-6.80
2023-01-11T13:34:45.403Z,-6.72
2023-01-11T13:37:20.066Z,-6.77
2023-01-11T13:40:16.619Z,-6.85
2023-01-11T13:42:50.299Z,-6.77
2023-01-11T13:45:30.478Z,-6.72
2023-01-11T13:48:06.211Z,-6.55
2023-01-11T13:50:57.122Z,-6.94
2023-01-11T13:53:49.483Z,-6.75
2023-01-11T13:56:25.709Z,-6.86
2023-01-11T13:59:00.692Z,-6.85
2023-01-11T14:01:38.186Z,-6.80
2023-01-11T14:04:28.924Z,-6.76
2023-01-11T14:07:24.182Z,-6.47
2023-01-11T14:10:12.771Z,-6.48
2023-01-11T14:13:01.426Z,-6.28
2023-01-11T14:16:07.734Z,-6.69
2023-01-11T14:18:40.132Z,-6.63
2023-01-11T14:21:07.409Z,-6.77
2023-01-11T14:23:41.206Z,-6.63
2023-01-11T14:26:26.996Z,-6.72
2023-01-11T14:29:12.766Z,-6.84
2023-01-11T14:31:55.153Z,-6.62
2023-01-11T14:34:57.021Z,-6.65
2023-01-11T14:38:00.647Z,-6.61
2023-01-11T14:40:39.937Z,-6.69
2023-01-11T14:43:46.492Z,-6.82
2023-01-11T14:46:42.039Z,-6.83
2023-01-11T14:49:15.409Z,-6.76
2023-01-11T14:51:51.459Z,-6.64
2023-01-11T14:54:27.447Z,-6.73
2023-01-11T14:56:59.412Z,-6.36
2023-01-11T14:59:40.450Z,-6.50
2023-01-11T15:02:11.460Z,-6.61
2023-01-11T15:04:58.944Z,-6.50
2023-01-11T15:07:29.238Z,-6.29
2023-01-11T15:10:06.089Z,-6.13
2023-01-11T15:12:38.617Z,-5.93
2023-01-11T15:15:14.628Z,-6.02
2023-01-11T15:18:01.184Z,-6.20
2023-01-11T15:20:28.905Z,-6.25
2023-01-11T15:23:06.279Z,-6.17
2023-01-11T15:25:35.290Z,-5.94
2023-01-11T15:28:24.542Z,-6.11
2023-01-11T15:30:52.482Z,-6.15
2023-01-11T15:33:19.749Z,-5.94
2023-01-11T15:35:56.628Z,-5.80
2023-01-11T15:38:37.782Z,-5.99
2023-01-11T15:41:31.091Z,-6.15
2023-01-11T15:44:24.681Z,-5.90
2023-01-11T15:47:07.330Z,-6.23
2023-01-11T15:50:06.362Z,-6.24
2023-01-11T15:52:52.338Z,-6.33
2023-01-11T15:55:38.619Z,-6.13
2023-01-11T15:58:17.927Z,-6.15
2023-01-11T16:01:05.375Z,-6.18
2023-01-11T16:04:00.952Z,-6.28
2023-01-11T16:06:37.640Z,-6.34
2023-01-11T16:09:49.996Z,-6.18
2023-01-11T16:12:33.860Z,-5.95
2023-01-11T16:15:40.033Z,-5.78
2023-01-11T16:18:17.919Z,-5.97
2023-01-11T16:21:03.124Z,-6.11
2023-01-11T16:23:32.629Z,-6.14
2023-01-11T16:26:02.277Z,-6.19
2023-01-11T16:28:29.631Z,-6.00
2023-01-11T16:31:00.455Z,-5.94
2023-01-11T16:33:29.940Z,-5.99
2023-01-11T16:36:07.329Z,-6.21
2023-01-11T16:39:01.811Z,-6.13
2023-01-11T16:41:38.404Z,-6.11
2023-01-11T16:44:09.478Z,-6.02
2023-01-11T16:47:17.250Z,-6.06
2023-01-11T16:49:52.493Z,-6.07
2023-01-11T16:52:44.575Z,-6.24
2023-01-11T16:55:40.593Z,-6.37
2023-01-11T16:58:22.526Z,-6.01
2023-01-11T17:01:16.060Z,-5.93
2023-01-11T17:03:55.078Z,-6.26
2023-01-11T17:06:24.375Z,-6.21
2023-01-11T17:08:57.301Z,-6.24
2023-01-11T17:11:37.169Z,-6.46
2023-01-11T17:14:25.937Z,-6.57
2023-01-11T17:17:00.152Z,-6.60
2023-01-11T17:19:34.926Z,-6.64
2023-01-11T17:22:30.160Z,-6.62
2023-01-11T17:25:16.335Z,-6.74
2023-01-11T17:27:51.076Z,-6.85
2023-01-11T17:30:24.622Z,-6.58
2023-01-11T17:32:54.854Z,-6.81
2023-01-11T17:35:24.794Z,-6.80
2023-01-11T17:37:55.841Z,-6.95
2023-01-11T17:40:39.672Z,-6.96
2023-01-11T17:43:31.782Z,-6.78
2023-01-11T17:46:03.444Z,-6.91
2023-01-11T17:48:31.821Z,-6.84
2023-01-11T17:51:01.692Z,-6.48
2023-01-11T17:53:32.409Z,-6.49
2023-01-11T17:56:05.553Z,-6.61
2023-01-11T17:58:34.877Z,-6.64
2023-01-11T18:01:08.455Z,-6.57
2023-01-11T18:04:07.071Z,-6.56
2023-01-11T18:06:48.061Z,-6.99
2023-01-11T18:09:31.679Z,-6.68
2023-01-11T18:12:18.485Z,-6.59
2023-01-11T18:14:58.370Z,-6.59
2023-01-11T18:17:30.833Z,-6.66
2023-01-11T18:19:58.804Z,-6.68
2023-01-11T18:22:30.203Z,-6.73
2023-01-11T18:25:04.843Z,-6.86
2023-01-11T18:27:34.546Z,-6.64
2023-01-11T18:30:06.713Z,-6.50
2023-01-11T18:32:42.923Z,-6.57
2023-01-11T18:35:19.117Z,-6.68
2023-01-11T18:37:46.955Z,-6.64
2023-01-11T18:40:19.518Z,-6.84
2023-01-11T18:42:52.125Z,-6.94
2023-01-11T18:45:21.591Z,-7.02
2023-01-11T18:50:49.362Z,-6.71
2023-01-11T18:53:40.026Z,-6.91
2023-01-11T18:56:31.116Z,-7.34
2023-01-11T18:59:04.126Z,-7.50
2023-01-11T19:01:43.138Z,-6.71
2023-01-11T19:04:18.898Z,-6.66
2023-01-11T19:06:45.989Z,-6.67
2023-01-11T19:09:15.525Z,-6.35
2023-01-11T19:11:42.573Z,-6.48
2023-01-11T19:14:15.352Z,-6.63
2023-01-11T19:16:42.639Z,-6.59
2023-01-11T19:19:19.802Z,-6.53
2023-01-11T19:21:51.347Z,-6.39
2023-01-11T19:24:18.563Z,-6.55
2023-01-11T19:26:45.956Z,-6.42
2023-01-11T19:29:17.455Z,-6.37
2023-01-11T19:31:46.549Z,-6.17
2023-01-11T19:34:14.632Z,-5.92
2023-01-11T19:36:42.401Z,-5.99
2023-01-11T19:39:09.698Z,-6.10
2023-01-11T19:41:57.060Z,-6.09
2023-01-11T19:44:27.125Z,-5.72
2023-01-11T19:47:09.707Z,-5.89
2023-01-11T19:49:37.760Z,-5.90
2023-01-11T19:52:12.670Z,-5.83
2023-01-11T19:54:44.045Z,-5.82
2023-01-11T19:57:18.471Z,-5.68
2023-01-11T19:59:45.939Z,-5.76
2023-01-11T20:02:15.258Z,-5.82
2023-01-11T20:04:43.633Z,-5.80
2023-01-11T20:07:14.048Z,-5.83
2023-01-11T20:09:41.329Z,-6.04
2023-01-11T20:12:11.233Z,-5.85
2023-01-11T20:14:40.624Z,-5.87
2023-01-11T20:17:08.754Z,-5.75
2023-01-11T20:19:37.194Z,-5.68
2023-01-11T20:22:05.464Z,-5.53
2023-01-11T20:24:32.875Z,-5.29
2023-01-11T20:27:02.612Z,-5.33
2023-01-11T20:29:30.542Z,-5.58
2023-01-11T20:32:13.418Z,-5.67
2023-01-11T20:34:47.475Z,-5.42
2023-01-11T20:37:15.324Z,-5.71
2023-01-11T20:39:43.031Z,-5.74
2023-01-11T20:42:12.636Z,-5.37
2023-01-11T20:44:39.968Z,-5.58
2023-01-11T20:47:09.859Z,-5.52
2023-01-11T20:49:39.631Z,-5.59
2023-01-11T20:52:07.468Z,-5.47
2023-01-11T20:54:38.122Z,-5.66
2023-01-11T20:57:12.775Z,-5.38
2023-01-11T20:59:40.020Z,-5.43
2023-01-11T21:02:09.754Z,-5.45
2023-01-11T21:04:39.795Z,-5.64
2023-01-11T21:07:08.138Z,-5.67
2023-01-11T21:09:37.880Z,-5.43
2023-01-11T21:12:05.485Z,-5.57
2023-01-11T21:14:32.676Z,-5.54
2023-01-11T21:17:00.144Z,-5.49
2023-01-11T21:19:31.286Z,-5.53
2023-01-11T21:21:58.530Z,-5.51
2023-01-11T21:24:26.167Z,-5.46
2023-01-11T21:26:53.836Z,-5.50
2023-01-11T21:29:21.075Z,-5.50
2023-01-11T21:31:48.675Z,-5.52
2023-01-11T21:34:25.199Z,-5.35
2023-01-11T21:36:52.584Z,-5.20
2023-01-11T21:39:21.736Z,-4.95
2023-01-11T21:41:59.221Z,-5.22
2023-01-11T21:44:36.863Z,-5.18
2023-01-11T21:47:07.137Z,-5.54
2023-01-11T21:49:34.790Z,-5.06
2023-01-11T21:52:04.727Z,-5.30
2023-01-11T21:54:37.464Z,-5.18
2023-01-11T21:57:04.787Z,-5.18
2023-01-11T21:59:34.082Z,-4.82
2023-01-11T22:02:01.587Z,-4.86
2023-01-11T22:04:28.928Z,-5.06
2023-01-11T22:06:57.872Z,-4.98
2023-01-11T22:09:28.343Z,-4.73
2023-01-11T22:11:55.578Z,-4.68
2023-01-11T22:14:23.977Z,-4.60
2023-01-11T22:16:57.550Z,-4.45
2023-01-11T22:19:24.792Z,-4.20
2023-01-11T22:22:05.244Z,-3.81
2023-01-11T22:24:35.273Z,-3.68
2023-01-11T22:27:02.782Z,-3.40
2023-01-11T22:29:29.891Z,-3.44
2023-01-11T22:32:01.904Z,-3.17
2023-01-11T22:34:29.109Z,-2.81
2023-01-11T22:36:59.696Z,-2.98
2023-01-11T22:39:27.504Z,-2.98
2023-01-11T22:42:03.618Z,-2.97
2023-01-11T22:44:31.032Z,-2.85
2023-01-11T22:46:58.601Z,-2.89
2023-01-11T22:49:26.389Z,-2.61
2023-01-11T22:51:53.469Z,-2.58
2023-01-11T22:54:20.613Z,-2.26
2023-01-11T22:56:47.917Z,-2.39
2023-01-11T22:59:15.303Z,-2.42
2023-01-11T23:01:42.785Z,-2.58
2023-01-11T23:04:13.168Z,-2.98
2023-01-11T23:06:41.852Z,-3.29
2023-01-11T23:09:15.530Z,-3.19
2023-01-11T23:12:01.619Z,-3.45
2023-01-11T23:14:30.714Z,-3.64
2023-01-11T23:17:25.896Z,-3.70
2023-01-11T23:19:53.073Z,-4.06
2023-01-11T23:22:20.269Z,-4.40
2023-01-11T23:24:48.171Z,-4.63
2023-01-11T23:27:15.670Z,-4.62
2023-01-11T23:29:42.905Z,-4.76
2023-01-11T23:32:10.240Z,-4.99
2023-01-11T23:34:37.532Z,-5.11
2023-01-11T23:37:05.225Z,-5.27
2023-01-11T23:39:34.248Z,-5.40
2023-01-11T23:42:20.040Z,-5.55
2023-01-11T23:44:47.696Z,-5.54
2023-01-11T23:47:29.892Z,-5.56
2023-01-11T23:50:00.678Z,-5.82
2023-01-11T23:52:30.492Z,-6.10
2023-01-11T23:54:57.738Z,-6.18
2023-01-11T23:57:26.302Z,-6.35
2023-01-11T23:59:53.513Z,-6.35
